Time;durP1;ratioP1;P1;durP2;ratioP2;P2;SDS_P1;SDS_P2;PMS_P1;PMS_P2;Temp;Humidity;BMP_temperature;BMP_pressure;BME280_temperature;BME280_humidity;BME280_pressure;Samples;Min_cycle;Max_cycle;Signal;HPM_P1;HPM_P2
2021/05/02 00:00:18;;;;;;;12.50;10.38;;;;;;;6.01;73.68;101628.75;5134486;27;20035;-40
2021/05/02 00:02:44;;;;;;;13.63;10.85;;;;;;;6.00;74.06;101627.03;5133667;27;20051;-40
2021/05/02 00:05:11;;;;;;;13.45;10.05;;;;;;;6.04;74.12;101631.03;5134060;27;20059;-40
2021/05/02 00:07:36;;;;;;;12.68;10.68;;;;;;;6.04;73.56;101623.81;5133632;27;20023;-40
2021/05/02 00:10:04;;;;;;;13.13;10.55;;;;;;;6.00;74.04;101629.72;5134387;27;20050;-40
2021/05/02 00:12:30;;;;;;;13.02;11.63;;;;;;;5.89;73.99;101626.44;5133894;27;20421;-40
2021/05/02 00:14:57;;;;;;;12.80;10.63;;;;;;;5.89;74.21;101633.66;5134523;27;20035;-40
2021/05/02 00:17:22;;;;;;;;;;;;;;;6.01;72.49;101626.88;5138347;27;20028;-39
2021/05/02 00:19:48;;;;;;;12.48;10.40;;;;;;;5.86;74.39;101628.66;5137971;27;19915;-40
2021/05/02 00:22:17;;;;;;;13.90;11.85;;;;;;;5.81;74.74;101633.75;5138142;27;20038;-40
2021/05/02 00:24:42;;;;;;;14.48;11.75;;;;;;;5.81;74.94;101637.25;5138200;27;20027;-39
2021/05/02 00:27:08;;;;;;;12.27;10.98;;;;;;;5.76;74.21;101639.66;5137900;27;20102;-40
2021/05/02 00:29:35;;;;;;;12.33;11.03;;;;;;;5.78;74.12;101640.28;5138069;27;20031;-39
2021/05/02 00:32:01;;;;;;;13.10;11.63;;;;;;;5.74;75.00;101633.59;5136090;27;20080;-40
2021/05/02 00:34:27;;;;;;;14.13;12.20;;;;;;;5.74;74.81;101641.66;5137706;27;20432;-39
2021/05/02 00:36:53;;;;;;;;;;;;;;;5.83;73.10;101637.06;5138389;27;20027;-39
2021/05/02 00:39:19;;;;;;;13.55;11.30;;;;;;;5.60;74.98;101639.75;5138062;27;19957;-39
2021/05/02 00:41:45;;;;;;;15.95;11.48;;;;;;;5.59;75.25;101638.09;5138118;27;20130;-39
2021/05/02 00:44:32;;;;;;;13.57;11.88;;;;;;;5.54;75.12;101635.09;5138054;27;20092;-39
2021/05/02 00:47:23;;;;;;;14.27;11.48;;;;;;;5.55;74.39;101644.81;5137872;27;20087;-39
2021/05/02 00:49:57;;;;;;;14.93;11.88;;;;;;;5.50;75.01;101639.16;5137092;27;20042;-39
2021/05/02 00:52:51;;;;;;;13.13;11.80;;;;;;;5.50;74.67;101639.16;5137463;27;20065;-39
2021/05/02 00:55:56;;;;;;;13.35;11.60;;;;;;;5.52;75.13;101635.31;5137305;27;20019;-39
2021/05/02 00:58:48;;;;;;;12.60;11.07;;;;;;;5.50;75.20;101640.00;5137209;27;20034;-39
2021/05/02 01:01:19;;;;;;;13.85;12.38;;;;;;;5.46;75.38;101644.03;5137449;27;20504;-39
2021/05/02 01:03:47;;;;;;;14.77;12.40;;;;;;;5.43;76.06;101641.72;5137887;27;20363;-40
2021/05/02 01:06:15;;;;;;;13.65;12.10;;;;;;;5.37;75.52;101640.59;5137872;27;20363;-39
2021/05/02 01:08:41;;;;;;;15.10;12.63;;;;;;;5.32;75.88;101640.28;5137606;27;20087;-46
2021/05/02 01:11:09;;;;;;;;;;;;;;;5.44;73.89;101632.66;5137580;27;20047;-39
2021/05/02 01:13:37;;;;;;;14.13;12.23;;;;;;;5.32;75.67;101642.97;5137256;27;19915;-39
2021/05/02 01:16:05;;;;;;;14.55;11.73;;;;;;;5.23;76.17;101645.88;5136944;27;20027;-39
2021/05/02 01:18:30;;;;;;;13.65;11.82;;;;;;;5.25;76.32;101647.34;5136860;27;20066;-39
2021/05/02 01:20:57;;;;;;;13.37;11.97;;;;;;;5.24;76.13;101645.69;5136917;27;20114;-39
2021/05/02 01:23:24;;;;;;;16.80;12.90;;;;;;;5.21;76.49;101645.19;5136475;27;20428;-39
2021/05/02 01:25:54;;;;;;;13.70;12.25;;;;;;;5.19;76.43;101642.72;5137365;27;20042;-39
2021/05/02 01:28:20;;;;;;;14.27;12.60;;;;;;;5.15;76.92;101652.09;5137166;27;20038;-39
2021/05/02 01:30:46;;;;;;;13.55;12.15;;;;;;;5.16;76.41;101643.03;5136690;27;20023;-39
2021/05/02 01:33:12;;;;;;;14.40;12.90;;;;;;;5.13;76.98;101651.47;5136880;27;20106;-39
2021/05/02 01:35:37;;;;;;;14.60;12.98;;;;;;;5.06;76.99;101653.16;5137138;27;20180;-39
2021/05/02 01:38:03;;;;;;;14.20;12.37;;;;;;;5.00;77.27;101651.19;5136523;27;20035;-39
2021/05/02 01:40:28;;;;;;;15.13;13.52;;;;;;;5.00;77.35;101652.00;5136415;27;20467;-40
2021/05/02 01:42:54;;;;;;;16.93;13.07;;;;;;;5.07;76.71;101649.47;5136678;27;20386;-39
2021/05/02 01:45:19;;;;;;;14.38;12.65;;;;;;;5.03;76.68;101648.16;5136418;27;20038;-39
2021/05/02 01:47:52;;;;;;;14.33;12.03;;;;;;;4.98;76.79;101655.88;5136369;27;20028;-39
2021/05/02 01:50:18;;;;;;;13.07;11.77;;;;;;;4.88;76.54;101656.94;5137058;27;20035;-39
2021/05/02 01:52:47;;;;;;;15.27;12.50;;;;;;;4.90;76.86;101660.25;5135871;27;20485;-39
2021/05/02 01:55:14;;;;;;;14.20;12.77;;;;;;;4.85;77.06;101668.00;5137001;27;20027;-39
2021/05/02 01:57:40;;;;;;;15.40;12.95;;;;;;;4.81;76.82;101661.31;5136065;27;20100;-39
2021/05/02 02:00:10;;;;;;;16.10;13.90;;;;;;;4.79;77.72;101662.50;5135998;27;20030;-39
2021/05/02 02:02:37;;;;;;;15.98;13.15;;;;;;;4.76;77.71;101663.66;5135633;27;20098;-40
2021/05/02 02:05:03;;;;;;;14.82;13.23;;;;;;;4.81;77.51;101665.84;5135965;27;20031;-40
2021/05/02 02:07:29;;;;;;;15.00;13.15;;;;;;;4.83;77.46;101663.78;5136335;27;20105;-39
2021/05/02 02:09:55;;;;;;;14.95;13.27;;;;;;;4.79;77.04;101663.34;5136482;27;20426;-39
2021/05/02 02:12:20;;;;;;;15.47;12.40;;;;;;;4.83;77.58;101670.03;5136369;27;20153;-40
2021/05/02 02:14:49;;;;;;;17.10;13.23;;;;;;;4.78;77.50;101660.81;5135530;27;20051;-39
2021/05/02 02:17:16;;;;;;;14.45;12.95;;;;;;;4.79;77.87;101663.34;5135765;27;20050;-39
2021/05/02 02:19:42;;;;;;;16.50;13.50;;;;;;;4.81;77.93;101660.47;5135954;27;20031;-39
2021/05/02 02:22:07;;;;;;;12.77;11.47;;;;;;;4.81;77.51;101661.31;5135414;27;20200;-39
2021/05/02 02:24:52;;;;;;;14.30;12.83;;;;;;;4.82;77.58;101665.66;5136256;27;20047;-39
2021/05/02 02:27:20;;;;;;;14.23;12.73;;;;;;;4.73;78.02;101668.53;5136377;27;20252;-39
2021/05/02 02:29:48;;;;;;;15.70;12.55;;;;;;;4.71;77.70;101673.22;5135566;27;20053;-39
2021/05/02 02:32:15;;;;;;;16.50;12.93;;;;;;;4.62;78.20;101678.59;5135519;27;20038;-39
2021/05/02 02:34:46;;;;;;;14.73;12.73;;;;;;;4.65;77.94;101675.59;5135468;27;20113;-39
2021/05/02 02:37:16;;;;;;;15.13;12.73;;;;;;;4.68;78.05;101682.44;5135610;27;20031;-39
2021/05/02 02:40:03;;;;;;;14.18;12.68;;;;;;;4.66;77.67;101684.47;5135236;27;20051;-39
2021/05/02 02:42:30;;;;;;;15.85;13.13;;;;;;;4.57;77.52;101688.16;5135264;27;20050;-39
2021/05/02 02:45:02;;;;;;;14.77;12.73;;;;;;;4.50;77.90;101681.84;5136063;27;20031;-39
2021/05/02 02:47:36;;;;;;;17.27;13.30;;;;;;;4.50;77.52;101685.34;5135992;27;20050;-39
2021/05/02 02:50:07;;;;;;;13.52;12.10;;;;;;;4.50;77.78;101681.84;5135437;27;20478;-40
2021/05/02 02:52:41;;;;;;;13.80;12.32;;;;;;;4.51;77.87;101683.50;5134788;27;20121;-39
2021/05/02 02:55:12;;;;;;;15.23;12.30;;;;;;;4.53;77.76;101682.31;5135045;27;20030;-39
2021/05/02 02:57:42;;;;;;;13.43;12.05;;;;;;;4.37;78.01;101680.50;5135028;27;20027;-39
2021/05/02 03:00:08;;;;;;;12.52;11.23;;;;;;;4.36;77.20;101686.88;5134913;27;20399;-39
2021/05/02 03:02:38;;;;;;;12.32;10.98;;;;;;;4.39;77.61;101691.91;5134878;27;20019;-39
2021/05/02 03:05:05;;;;;;;12.93;11.18;;;;;;;4.38;77.71;101692.88;5135198;27;20031;-39
2021/05/02 03:07:33;;;;;;;13.98;11.38;;;;;;;4.39;76.99;101686.53;5134816;27;20106;-39
2021/05/02 03:09:59;;;;;;;14.07;11.38;;;;;;;4.39;77.43;101689.22;5135581;27;20358;-39
2021/05/02 03:12:24;;;;;;;;;;;;;;;4.47;75.95;101692.88;5135181;27;20053;-39
2021/05/02 03:14:52;;;;;;;14.00;10.60;;;;;;;4.34;77.25;101694.25;5134961;27;19979;-39
2021/05/02 03:17:22;;;;;;;13.25;10.75;;;;;;;4.31;77.42;101702.59;5134640;27;20076;-39
2021/05/02 03:19:57;;;;;;;13.55;10.55;;;;;;;4.18;77.81;101694.25;5134613;27;20031;-39
2021/05/02 03:22:35;;;;;;;11.98;10.68;;;;;;;4.24;77.10;101704.28;5134551;27;20056;-39
2021/05/02 03:25:04;;;;;;;13.23;10.52;;;;;;;4.18;77.45;101712.97;5134816;27;20443;-39
2021/05/02 03:27:42;;;;;;;11.60;10.40;;;;;;;4.17;77.22;101705.97;5134438;27;20023;-39
2021/05/02 03:30:08;;;;;;;13.05;10.50;;;;;;;4.15;77.39;101710.66;5134432;27;20121;-39
2021/05/02 03:32:36;;;;;;;12.75;10.68;;;;;;;4.12;77.72;101709.13;5134700;27;20058;-39
2021/05/02 03:35:07;;;;;;;11.70;10.40;;;;;;;4.16;77.49;101715.00;5134223;27;20367;-39
2021/05/02 03:37:34;;;;;;;13.60;10.93;;;;;;;4.16;77.75;101720.34;5134274;27;20058;-39
2021/05/02 03:40:01;;;;;;;12.85;10.30;;;;;;;4.12;77.07;101719.84;5134207;27;20031;-39
2021/05/02 03:42:27;;;;;;;10.82;9.60;;;;;;;4.12;77.44;101722.53;5134508;27;20033;-39
2021/05/02 03:44:52;;;;;;;13.30;10.60;;;;;;;4.14;77.82;101722.34;5134310;28;20410;-39
2021/05/02 03:47:18;;;;;;;12.23;10.43;;;;;;;4.09;77.77;101722.84;5134287;27;20036;-39
2021/05/02 03:49:43;;;;;;;13.07;10.83;;;;;;;4.06;77.63;101717.00;5134835;27;20508;-39
2021/05/02 03:52:12;;;;;;;14.47;11.00;;;;;;;4.00;78.29;101720.34;5137818;27;20027;-39
2021/05/02 03:54:38;;;;;;;12.50;10.75;;;;;;;3.99;77.94;101724.84;5138284;27;20499;-39
2021/05/02 03:57:03;;;;;;;14.97;11.10;;;;;;;4.00;78.24;101731.03;5138785;27;20034;-39
2021/05/02 03:59:29;;;;;;;13.57;10.52;;;;;;;4.00;78.03;101733.72;5138371;27;20027;-39
2021/05/02 04:01:55;;;;;;;12.93;10.30;;;;;;;3.93;77.57;101736.22;5138448;27;20053;-39
2021/05/02 04:04:25;;;;;;;14.52;10.57;;;;;;;3.87;77.13;101737.72;5138656;27;20027;-39
2021/05/02 04:06:51;;;;;;;13.60;10.73;;;;;;;3.94;77.83;101745.09;5138927;27;20091;-39
2021/05/02 04:09:17;;;;;;;15.52;11.18;;;;;;;3.88;78.41;101743.91;5137962;27;20027;-39
2021/05/02 04:11:45;;;;;;;;;;;;;;;4.00;77.01;101745.28;5139628;27;20047;-39
2021/05/02 04:14:16;;;;;;;11.93;9.93;;;;;;;3.91;78.24;101745.44;5137939;27;19918;-39
2021/05/02 04:16:42;;;;;;;12.73;10.82;;;;;;;3.88;78.09;101742.06;5138417;27;20469;-39
2021/05/02 04:19:09;;;;;;;14.65;11.27;;;;;;;3.81;78.78;101759.81;5138050;27;20042;-39
2021/05/02 04:21:35;;;;;;;13.40;10.60;;;;;;;3.86;78.80;101762.81;5138067;27;20028;-39
2021/05/02 04:24:02;;;;;;;12.15;10.23;;;;;;;3.86;78.43;101762.81;5137933;27;20030;-39
2021/05/02 04:26:27;;;;;;;12.68;10.70;;;;;;;3.83;78.75;101762.31;5137671;27;20035;-39
2021/05/02 04:28:53;;;;;;;12.60;10.23;;;;;;;3.89;78.46;101777.69;5137554;27;20126;-39
2021/05/02 04:31:18;;;;;;;10.17;9.10;;;;;;;3.88;77.80;101765.31;5137889;27;20268;-42
2021/05/02 04:33:45;;;;;;;11.93;9.85;;;;;;;3.90;78.05;101783.88;5138084;27;20077;-39
2021/05/02 04:36:10;;;;;;;;;;;;;;;4.01;76.64;101773.72;5138537;27;20023;-39
2021/05/02 04:38:35;;;;;;;10.73;8.83;;;;;;;3.92;77.27;101784.56;5137979;27;19914;-39
2021/05/02 04:41:02;;;;;;;12.33;9.40;;;;;;;3.93;77.45;101786.25;5137634;27;20137;-39
2021/05/02 04:43:27;;;;;;;9.98;8.88;;;;;;;3.92;77.33;101787.25;5138076;27;20027;-39
2021/05/02 04:45:53;;;;;;;12.10;9.83;;;;;;;3.93;78.01;101791.59;5137629;27;20034;-39
2021/05/02 04:48:18;;;;;;;10.97;9.70;;;;;;;4.06;77.74;101797.31;5137480;27;20030;-39
2021/05/02 04:50:44;;;;;;;13.20;9.83;;;;;;;4.08;77.84;101798.81;5137167;27;20064;-39
2021/05/02 04:53:09;;;;;;;12.73;9.13;;;;;;;4.19;78.00;101797.66;5137071;27;20022;-39
2021/05/02 04:55:35;;;;;;;12.07;8.67;;;;;;;4.23;77.59;101795.47;5135711;27;20042;-39
2021/05/02 04:58:05;;;;;;;11.33;8.67;;;;;;;4.21;77.74;101798.34;5137332;27;20031;-39
2021/05/02 05:00:31;;;;;;;11.18;9.07;;;;;;;4.33;78.00;101797.00;5137675;27;20419;-39
2021/05/02 05:02:58;;;;;;;11.10;8.73;;;;;;;4.34;78.00;101804.03;5136736;27;20031;-39
2021/05/02 05:05:23;;;;;;;9.75;7.63;;;;;;;4.37;76.70;101802.84;5137429;27;20102;-39
2021/05/02 05:07:49;;;;;;;12.33;8.77;;;;;;;4.40;77.24;101797.19;5137101;27;20221;-39
2021/05/02 05:10:14;;;;;;;8.80;7.90;;;;;;;4.52;76.82;101798.50;5137419;27;20263;-39
2021/05/02 05:12:40;;;;;;;10.50;8.27;;;;;;;4.67;76.71;101811.22;5137877;27;20348;-39
2021/05/02 05:15:06;;;;;;;10.63;8.10;;;;;;;4.79;76.88;101810.72;5137258;27;20467;-39
2021/05/02 05:17:32;;;;;;;10.63;8.18;;;;;;;4.87;76.80;101810.69;5137356;27;20095;-39
2021/05/02 05:19:57;;;;;;;10.27;8.20;;;;;;;5.01;75.99;101816.38;5137381;27;20092;-39
2021/05/02 05:22:22;;;;;;;9.53;8.20;;;;;;;5.08;76.04;101817.38;5136866;27;20038;-39
2021/05/02 05:24:48;;;;;;;8.30;7.37;;;;;;;5.16;75.71;101820.00;5136607;27;20368;-39
2021/05/02 05:27:13;;;;;;;12.20;8.27;;;;;;;5.25;75.62;101827.03;5136786;27;20027;-39
2021/05/02 05:29:38;;;;;;;9.60;7.27;;;;;;;5.32;74.87;101829.84;5137025;27;20058;-40
2021/05/02 05:32:04;;;;;;;9.33;8.07;;;;;;;5.34;74.79;101828.69;5136430;27;20034;-39
2021/05/02 05:34:31;;;;;;;12.27;7.30;;;;;;;5.45;74.97;101840.06;5136374;27;20031;-39
2021/05/02 05:36:56;;;;;;;13.38;7.50;;;;;;;5.51;74.45;101829.44;5137097;27;20261;-39
2021/05/02 05:39:22;;;;;;;10.35;7.82;;;;;;;5.66;74.12;101834.91;5136479;27;20050;-39
2021/05/02 05:41:47;;;;;;;8.63;6.67;;;;;;;5.74;73.57;101834.91;5136803;27;20088;-39
2021/05/02 05:44:12;;;;;;;8.13;6.70;;;;;;;5.78;73.67;101844.28;5136919;27;20068;-39
2021/05/02 05:46:38;;;;;;;9.63;6.83;;;;;;;5.85;73.73;101839.88;5136745;27;20019;-38
2021/05/02 05:49:03;;;;;;;11.63;6.33;;;;;;;5.90;73.00;101844.72;5136842;27;20031;-39
2021/05/02 05:51:29;;;;;;;8.98;7.10;;;;;;;5.93;73.44;101842.56;5136624;27;20031;-39
2021/05/02 05:53:54;;;;;;;6.87;5.83;;;;;;;5.98;73.22;101855.44;5136541;27;20425;-39
2021/05/02 05:56:19;;;;;;;7.83;5.57;;;;;;;5.97;73.18;101850.25;5136295;27;20023;-39
2021/05/02 05:58:45;;;;;;;8.23;6.33;;;;;;;6.06;73.16;101854.59;5136143;27;20030;-39
2021/05/02 06:01:10;;;;;;;8.00;5.53;;;;;;;6.15;72.17;101853.53;5136639;27;20102;-39
2021/05/02 06:03:35;;;;;;;10.13;6.50;;;;;;;6.22;72.43;101854.47;5136047;27;20391;-39
2021/05/02 06:06:01;;;;;;;8.30;5.53;;;;;;;6.28;72.17;101853.75;5136142;27;20523;-39
2021/05/02 06:08:26;;;;;;;8.23;5.67;;;;;;;6.34;72.52;101858.41;5135993;27;20443;-39
2021/05/02 06:10:51;;;;;;;7.50;5.87;;;;;;;6.40;71.72;101854.19;5135867;27;20047;-39
2021/05/02 06:13:19;;;;;;;7.77;5.73;;;;;;;6.46;71.90;101850.78;5135670;27;20031;-39
2021/05/02 06:15:45;;;;;;;9.25;6.85;;;;;;;6.49;72.04;101857.63;5135505;27;20020;-40
2021/05/02 06:18:11;;;;;;;7.53;5.50;;;;;;;6.55;71.38;101857.78;5135788;27;20031;-40
2021/05/02 06:20:36;;;;;;;6.88;4.95;;;;;;;6.61;71.37;101859.72;5136252;27;20023;-39
2021/05/02 06:23:02;;;;;;;9.37;5.70;;;;;;;6.74;71.11;101852.94;5135967;27;20027;-40
2021/05/02 06:25:27;;;;;;;8.07;5.20;;;;;;;6.84;71.00;101859.72;5136012;27;20079;-39
2021/05/02 06:27:52;;;;;;;6.97;4.83;;;;;;;6.96;71.23;101860.09;5135634;27;20031;-39
2021/05/02 06:30:18;;;;;;;7.43;4.80;;;;;;;7.07;70.09;101862.34;5135555;27;20038;-39
2021/05/02 06:32:44;;;;;;;9.50;4.57;;;;;;;7.14;69.98;101860.59;5135403;27;20035;-39
2021/05/02 06:35:10;;;;;;;6.87;4.50;;;;;;;7.23;69.23;101858.69;5135806;27;20034;-39
2021/05/02 06:37:35;;;;;;;7.60;4.50;;;;;;;7.31;69.29;101855.88;5135375;27;20023;-39
2021/05/02 06:40:00;;;;;;;6.87;4.40;;;;;;;7.36;69.20;101858.84;5135747;27;20072;-39
2021/05/02 06:42:26;;;;;;;8.70;3.63;;;;;;;7.41;67.84;101861.81;5135076;27;20132;-39
2021/05/02 06:44:51;;;;;;;10.13;3.47;;;;;;;7.46;67.59;101863.94;5135553;27;20109;-39
2021/05/02 06:47:17;;;;;;;9.70;3.35;;;;;;;7.45;66.68;101857.75;5134852;27;20023;-40
2021/05/02 06:49:42;;;;;;;4.50;2.97;;;;;;;7.52;67.00;101865.09;5135250;27;20053;-40
2021/05/02 06:52:08;;;;;;;5.87;2.70;;;;;;;7.63;66.46;101864.63;5135958;27;20106;-39
2021/05/02 06:54:33;;;;;;;7.30;2.87;;;;;;;7.68;65.76;101863.03;5135314;27;20027;-39
2021/05/02 06:56:58;;;;;;;10.97;4.10;;;;;;;7.78;66.12;101868.13;5135361;27;20055;-39
2021/05/02 06:59:24;;;;;;;6.43;2.90;;;;;;;7.85;65.01;101869.03;5134867;27;20075;-39
2021/05/02 07:01:50;;;;;;;6.65;2.35;;;;;;;7.87;65.36;101871.56;5134608;27;20078;-39
2021/05/02 07:04:15;;;;;;;5.47;3.00;;;;;;;7.93;64.45;101870.81;5134833;27;20047;-39
2021/05/02 07:06:41;;;;;;;6.90;3.00;;;;;;;7.90;65.54;101880.06;5135492;27;20051;-40
2021/05/02 07:09:06;;;;;;;4.87;2.40;;;;;;;7.94;63.95;101877.84;5135054;27;20269;-39
2021/05/02 07:11:32;;;;;;;4.80;2.00;;;;;;;8.08;64.25;101885.06;5134929;27;20144;-39
2021/05/02 07:13:57;;;;;;;3.33;1.90;;;;;;;8.11;64.32;101891.94;5134578;27;20046;-40
2021/05/02 07:16:23;;;;;;;3.23;1.67;;;;;;;8.01;62.39;101886.84;5134825;27;20066;-40
2021/05/02 07:18:50;;;;;;;8.75;1.98;;;;;;;7.95;62.64;101901.06;5134181;27;20042;-40
2021/05/02 07:21:18;;;;;;;4.43;1.75;;;;;;;7.96;63.18;101898.19;5134308;27;20455;-39
2021/05/02 07:23:46;;;;;;;5.90;1.98;;;;;;;8.10;63.63;101892.94;5134538;27;20027;-39
2021/05/02 07:26:12;;;;;;;7.20;2.10;;;;;;;8.18;63.33;101901.75;5134393;27;20034;-39
2021/05/02 07:28:38;;;;;;;3.78;1.88;;;;;;;8.13;62.83;101897.97;5134502;27;20031;-39
2021/05/02 07:31:03;;;;;;;3.77;1.80;;;;;;;8.03;63.00;101910.91;5134229;27;20031;-39
2021/05/02 07:33:29;;;;;;;6.15;1.50;;;;;;;7.96;62.99;101908.97;5134389;27;20034;-39
2021/05/02 07:35:56;;;;;;;5.40;1.60;;;;;;;8.05;63.21;101906.16;5134709;27;20027;-39
2021/05/02 07:38:22;;;;;;;3.92;1.67;;;;;;;8.15;62.99;101917.47;5134240;27;20100;-40
2021/05/02 07:40:47;;;;;;;6.07;1.63;;;;;;;8.31;61.43;101906.50;5134607;27;20035;-39
2021/05/02 07:43:12;;;;;;;6.07;1.43;;;;;;;8.51;60.63;101912.94;5134326;27;20027;-40
2021/05/02 07:45:38;;;;;;;5.10;1.40;;;;;;;8.71;60.02;101909.63;5134070;27;20398;-39
2021/05/02 07:48:03;;;;;;;3.97;1.40;;;;;;;8.94;58.75;101904.88;5134827;27;20027;-39
2021/05/02 07:50:29;;;;;;;4.38;1.30;;;;;;;9.08;59.35;101899.56;5134600;28;20055;-39
2021/05/02 07:52:54;;;;;;;4.43;1.40;;;;;;;9.10;57.95;101901.03;5132524;28;20451;-39
2021/05/02 07:55:19;;;;;;;3.67;1.57;;;;;;;9.14;56.94;101921.22;5134437;28;20035;-40
2021/05/02 07:57:45;;;;;;;5.30;1.35;;;;;;;9.08;55.98;101913.06;5133863;28;20512;-39
2021/05/02 08:00:11;;;;;;;4.63;1.10;;;;;;;9.05;55.92;101919.69;5134106;28;20050;-39
2021/05/02 08:02:40;;;;;;;2.42;1.10;;;;;;;8.85;56.64;101910.59;5134125;28;20030;-39
2021/05/02 08:05:10;;;;;;;3.83;1.30;;;;;;;8.72;55.50;101919.38;5134659;28;20027;-39
2021/05/02 08:07:35;;;;;;;2.75;1.23;;;;;;;8.68;55.79;101921.63;5133961;28;20034;-39
2021/05/02 08:10:01;;;;;;;2.00;1.00;;;;;;;8.70;56.60;101916.88;5133501;28;20039;-39
2021/05/02 08:12:26;;;;;;;2.38;1.10;;;;;;;8.66;55.39;101914.75;5134441;28;20131;-39
2021/05/02 08:14:51;;;;;;;4.03;1.40;;;;;;;8.69;56.30;101922.47;5134326;28;20027;-39
2021/05/02 08:17:17;;;;;;;2.77;1.30;;;;;;;8.64;55.83;101916.84;5134038;28;20083;-39
2021/05/02 08:19:42;;;;;;;4.10;1.20;;;;;;;8.71;56.00;101920.41;5134517;27;20067;-39
2021/05/02 08:22:07;;;;;;;2.53;1.53;;;;;;;8.66;53.55;101921.00;5133665;28;20027;-39
2021/05/02 08:24:33;;;;;;;3.43;1.10;;;;;;;8.78;53.54;101918.59;5134486;28;20035;-39
2021/05/02 08:26:58;;;;;;;2.30;1.00;;;;;;;9.07;52.79;101925.72;5133870;28;20055;-39
2021/05/02 08:29:24;;;;;;;1.87;0.90;;;;;;;9.31;53.11;101921.75;5134138;28;20016;-40
2021/05/02 08:31:50;;;;;;;3.55;1.40;;;;;;;9.60;51.77;101914.47;5134106;28;20025;-39
2021/05/02 08:34:15;;;;;;;4.30;1.20;;;;;;;9.70;52.30;101910.38;5134167;28;20511;-39
2021/05/02 08:36:40;;;;;;;2.33;1.10;;;;;;;9.76;51.47;101923.13;5135249;27;20023;-39
2021/05/02 08:39:06;;;;;;;3.20;1.13;;;;;;;9.67;52.32;101910.78;5138196;27;20063;-39
2021/05/02 08:41:31;;;;;;;4.43;1.40;;;;;;;9.81;52.53;101919.81;5137709;27;20023;-40
2021/05/02 08:43:57;;;;;;;2.33;1.10;;;;;;;9.89;50.98;101911.53;5137882;27;20520;-39
2021/05/02 08:46:24;;;;;;;3.63;1.55;;;;;;;10.01;50.54;101915.34;5138070;27;20059;-39
2021/05/02 08:48:49;;;;;;;3.10;1.25;;;;;;;10.00;50.17;101913.69;5137516;27;20031;-39
2021/05/02 08:51:15;;;;;;;3.90;1.45;;;;;;;9.90;50.72;101915.06;5138323;27;20134;-39
2021/05/02 08:53:40;;;;;;;4.32;1.38;;;;;;;9.78;50.91;101920.19;5137168;27;20031;-39
2021/05/02 08:56:06;;;;;;;3.70;1.20;;;;;;;9.57;51.45;101923.00;5137203;27;20459;-39
2021/05/02 08:58:31;;;;;;;2.95;1.25;;;;;;;9.38;52.56;101930.75;5137332;27;20364;-39
2021/05/02 09:00:58;;;;;;;3.20;1.27;;;;;;;9.19;52.47;101939.53;5136230;27;20411;-39
2021/05/02 09:03:44;;;;;;;3.15;1.17;;;;;;;8.97;54.61;101939.53;5137674;27;20055;-39
2021/05/02 09:06:20;;;;;;;5.15;1.40;;;;;;;8.84;54.53;101933.19;5137514;27;20051;-39
2021/05/02 09:08:46;;;;;;;2.55;1.17;;;;;;;8.71;54.33;101932.03;5137135;27;20044;-39
2021/05/02 09:11:13;;;;;;;4.13;1.10;;;;;;;8.82;55.38;101933.38;5137610;27;20031;-39
2021/05/02 09:13:50;;;;;;;3.92;1.30;;;;;;;9.26;54.85;101932.31;5137285;27;20023;-39
2021/05/02 09:16:17;;;;;;;3.03;1.30;;;;;;;9.62;54.42;101926.75;5136749;27;20439;-39
2021/05/02 09:18:49;;;;;;;3.45;1.38;;;;;;;10.03;52.98;101917.81;5136917;27;20031;-39
2021/05/02 09:21:26;;;;;;;3.05;1.40;;;;;;;10.27;51.83;101913.78;5136881;27;20061;-38
2021/05/02 09:23:54;;;;;;;4.57;2.60;;;;;;;10.69;50.01;101928.91;5137075;27;20027;-39
2021/05/02 09:26:25;;;;;;;2.58;1.30;;;;;;;10.66;49.18;101923.88;5136786;27;20106;-38
2021/05/02 09:28:56;;;;;;;2.58;1.35;;;;;;;10.48;49.33;101915.50;5137026;27;20098;-39
2021/05/02 09:31:30;;;;;;;3.00;1.05;;;;;;;10.42;49.38;101916.34;5136733;27;20027;-39
2021/05/02 09:34:17;;;;;;;2.60;1.30;;;;;;;10.34;50.23;101933.56;5136940;27;20451;-39
2021/05/02 09:37:09;;;;;;;3.47;1.05;;;;;;;10.21;48.83;101925.41;5136555;27;20051;-39
2021/05/02 09:39:38;;;;;;;4.55;1.20;;;;;;;10.04;47.66;101927.59;5134195;27;20039;-39
2021/05/02 09:42:15;;;;;;;1.65;0.93;;;;;;;9.99;47.74;101933.59;5136987;27;20035;-39
2021/05/02 09:44:46;;;;;;;2.30;1.13;;;;;;;9.98;47.36;101934.63;5136999;27;20080;-39
2021/05/02 09:47:21;;;;;;;1.40;0.85;;;;;;;10.12;47.47;101934.72;5136664;27;20528;-39
2021/05/02 09:50:08;;;;;;;1.80;0.90;;;;;;;10.34;46.85;101930.84;5135251;27;20027;-39
2021/05/02 09:52:51;;;;;;;2.50;1.05;;;;;;;10.36;47.40;101923.41;5136901;27;20109;-39
2021/05/02 09:55:25;;;;;;;2.92;0.95;;;;;;;10.25;47.67;101924.81;5136513;27;20034;-39
2021/05/02 09:58:10;;;;;;;2.38;1.40;;;;;;;10.60;47.59;101926.59;5135835;27;20035;-39
2021/05/02 10:00:39;;;;;;;2.47;1.00;;;;;;;11.12;46.05;101924.97;5136301;27;20023;-39
2021/05/02 10:03:09;;;;;;;3.22;1.30;;;;;;;11.44;43.50;101934.13;5135967;27;20019;-39
2021/05/02 10:05:51;;;;;;;3.15;1.55;;;;;;;11.77;43.31;101932.19;5136570;27;20039;-39
2021/05/02 10:08:18;;;;;;;2.70;1.05;;;;;;;11.81;42.54;101922.59;5136776;27;20023;-39
2021/05/02 10:10:44;;;;;;;2.08;0.98;;;;;;;11.59;41.77;101923.88;5136016;27;20160;-39
2021/05/02 10:13:09;;;;;;;2.95;1.02;;;;;;;11.35;41.92;101923.50;5136380;27;20047;-39
2021/05/02 10:15:34;;;;;;;4.43;1.17;;;;;;;11.23;43.21;101924.34;5135488;27;20482;-39
2021/05/02 10:18:00;;;;;;;2.67;1.13;;;;;;;11.26;43.42;101923.91;5135813;27;20031;-39
2021/05/02 10:20:25;;;;;;;2.57;1.30;;;;;;;11.31;43.74;101921.41;5136294;27;20405;-39
2021/05/02 10:22:51;;;;;;;2.73;1.13;;;;;;;11.38;44.40;101918.72;5135721;27;20019;-39
2021/05/02 10:25:16;;;;;;;2.33;1.00;;;;;;;11.39;44.18;101913.09;5135681;27;20470;-40
2021/05/02 10:27:50;;;;;;;1.30;0.90;;;;;;;11.53;43.16;101912.03;5135328;27;20078;-39
2021/05/02 10:30:26;;;;;;;2.88;1.05;;;;;;;11.76;42.84;101914.28;5136049;27;20379;-39
2021/05/02 10:32:59;;;;;;;3.83;0.80;;;;;;;11.67;41.70;101917.41;5135986;27;20027;-40
2021/05/02 10:35:40;;;;;;;2.90;1.10;;;;;;;11.66;41.04;101913.03;5135734;27;20421;-39
2021/05/02 10:38:06;;;;;;;2.92;1.20;;;;;;;11.57;41.00;101917.84;5135686;27;20034;-39
2021/05/02 10:40:33;;;;;;;2.20;1.17;;;;;;;11.45;40.46;101923.06;5135255;27;20031;-40
2021/05/02 10:43:05;;;;;;;1.83;0.93;;;;;;;11.23;40.34;101924.34;5135250;27;20030;-40
2021/05/02 10:45:31;;;;;;;2.33;1.30;;;;;;;11.06;40.96;101922.03;5135585;27;20027;-39
2021/05/02 10:47:56;;;;;;;3.10;0.93;;;;;;;11.11;41.52;101926.84;5135183;27;20164;-39
2021/05/02 10:50:33;;;;;;;2.83;0.93;;;;;;;11.15;41.92;101928.09;5135769;27;20378;-39
2021/05/02 10:53:01;;;;;;;;;;;;;;;11.24;42.93;101931.44;5135736;27;20459;-39
2021/05/02 10:55:52;;;;;;;3.08;1.27;;;;;;;10.94;46.23;101931.84;5135147;27;19907;-39
2021/05/02 10:58:18;;;;;;;2.08;0.90;;;;;;;10.77;47.83;101935.97;5135005;27;20386;-39
2021/05/02 11:00:47;;;;;;;;;;;;;;;10.74;48.63;101941.81;5134905;27;20031;-39
2021/05/02 11:03:38;;;;;;;2.83;1.25;;;;;;;10.57;49.16;101950.28;5134857;27;19999;-39
2021/05/02 11:06:13;;;;;;;2.10;1.08;;;;;;;10.72;49.96;101936.59;5135477;27;20039;-39
2021/05/02 11:08:56;;;;;;;1.83;1.15;;;;;;;10.88;49.18;101942.63;5135005;27;20027;-39
2021/05/02 11:11:35;;;;;;;6.65;1.20;;;;;;;11.26;48.47;101943.69;5135077;27;20109;-39
2021/05/02 11:14:07;;;;;;;4.75;1.35;;;;;;;11.40;47.48;101930.16;5135296;27;20125;-39
2021/05/02 11:16:32;;;;;;;2.67;1.20;;;;;;;11.37;47.61;101934.13;5135038;27;20364;-39
2021/05/02 11:18:58;;;;;;;5.75;1.65;;;;;;;11.32;47.75;101931.19;5134397;27;20039;-39
2021/05/02 11:21:24;;;;;;;2.80;1.40;;;;;;;11.32;46.79;101936.63;5134057;27;20122;-39
2021/05/02 11:23:54;;;;;;;2.67;1.33;;;;;;;11.19;45.46;101933.94;5134873;27;20023;-39
2021/05/02 11:26:54;;;;;;;2.17;1.13;;;;;;;11.35;46.14;101939.75;5134854;27;20026;-39
2021/05/02 11:29:22;;;;;;;2.40;1.30;;;;;;;11.38;46.79;101945.81;5134709;27;20120;-39
2021/05/02 11:31:48;;;;;;;2.13;1.13;;;;;;;11.27;45.98;101948.09;5134700;27;20027;-39